TAF Text Data
IDs:
Format:
Raw Decoded Include METAR

Data at: 0212 UTC 29 Nov 2020

KHSV 282320Z 2900/2924 36005KT P6SM OVC250
  FM291800 15007KT P6SM OVC030
  FM292100 12006KT 5SM SHRA BR OVC007